Time;durP1;ratioP1;P1;durP2;ratioP2;P2;SDS_P1;SDS_P2;PMS_P1;PMS_P2;Temp;Humidity;BMP_temperature;BMP_pressure;BME280_temperature;BME280_humidity;BME280_pressure;Samples;Min_cycle;Max_cycle;Signal;HPM_P1;HPM_P2
2022/11/17 00:01:21;;;;;;;12.70;6.57;;;;;;;9.31;100.00;98763.59;5025240;28;20041;-64
2022/11/17 00:03:48;;;;;;;11.43;6.80;;;;;;;9.29;100.00;98720.03;5024659;28;20375;-62
2022/11/17 00:06:13;;;;;;;9.90;6.40;;;;;;;9.33;100.00;98734.03;5024266;28;20041;-64
2022/11/17 00:08:39;;;;;;;10.98;6.22;;;;;;;9.31;100.00;98717.84;5025028;28;20033;-63
2022/11/17 00:11:04;;;;;;;11.35;6.82;;;;;;;9.32;100.00;98729.63;5025426;28;20035;-63
2022/11/17 00:16:15;;;;;;;13.02;7.10;;;;;;;9.29;100.00;98702.78;5025061;28;20115;-64
2022/11/17 00:21:27;;;;;;;10.50;6.47;;;;;;;9.30;100.00;98688.00;5026806;28;20067;-63
2022/11/17 00:23:53;;;;;;;11.75;6.05;;;;;;;9.38;100.00;98689.34;5023322;28;20041;-65
2022/11/17 00:26:30;;;;;;;8.82;5.88;;;;;;;9.33;100.00;98682.78;5024816;28;20094;-62
2022/11/17 00:28:57;;;;;;;8.48;5.32;;;;;;;9.33;100.00;98691.00;5029313;28;20635;-62
2022/11/17 00:34:17;;;;;;;9.85;5.60;;;;;;;9.39;100.00;98652.66;5031762;28;20116;-63
2022/11/17 00:36:44;;;;;;;9.98;5.38;;;;;;;9.44;100.00;98663.59;5028751;28;20033;-63
2022/11/17 00:39:11;;;;;;;10.88;5.82;;;;;;;9.46;100.00;98661.38;5032107;28;20035;-62
2022/11/17 00:41:37;;;;;;;8.45;5.07;;;;;;;9.46;100.00;98653.16;5032544;28;20410;-63
2022/11/17 00:44:02;;;;;;;9.65;5.70;;;;;;;9.41;100.00;98639.47;5032996;28;20079;-65
2022/11/17 00:46:27;;;;;;;8.98;5.70;;;;;;;9.57;100.00;98638.34;5031656;28;20496;-62
2022/11/17 00:48:53;;;;;;;10.15;5.72;;;;;;;9.40;100.00;98635.09;5031312;28;20036;-65
2022/11/17 00:51:18;;;;;;;10.68;5.97;;;;;;;9.36;100.00;98627.44;5031815;28;20026;-64
2022/11/17 00:53:44;;;;;;;11.20;6.13;;;;;;;9.36;100.00;98612.91;5032409;28;20026;-63
2022/11/17 00:56:09;;;;;;;9.98;6.07;;;;;;;9.34;100.00;98618.69;5032116;28;20148;-62
2022/11/17 00:58:35;;;;;;;10.40;6.50;;;;;;;9.27;100.00;98611.84;5032412;28;20048;-62
2022/11/17 01:01:01;;;;;;;9.80;6.18;;;;;;;9.26;100.00;98616.50;5032007;28;20033;-63
2022/11/17 01:03:26;;;;;;;10.43;5.30;;;;;;;9.30;100.00;98605.81;5030909;28;20032;-65
2022/11/17 01:05:51;;;;;;;10.88;5.57;;;;;;;9.32;100.00;98603.59;5030735;28;20030;-66
2022/11/17 01:08:17;;;;;;;9.00;5.43;;;;;;;9.41;100.00;98595.66;5031067;28;20067;-63
2022/11/17 01:10:42;;;;;;;11.48;6.28;;;;;;;9.34;100.00;98595.94;5031804;28;20040;-65
2022/11/17 01:13:07;;;;;;;9.60;5.90;;;;;;;9.31;100.00;98599.22;5029154;28;20037;-62
2022/11/17 01:15:33;;;;;;;10.55;6.28;;;;;;;9.31;100.00;98601.97;5031705;28;20060;-62
2022/11/17 01:17:58;;;;;;;8.43;5.90;;;;;;;9.27;100.00;98592.66;5032606;28;20033;-66
2022/11/17 01:20:23;;;;;;;9.23;6.13;;;;;;;9.34;100.00;98610.47;5032728;28;20029;-64
2022/11/17 01:22:49;;;;;;;8.90;5.65;;;;;;;9.31;100.00;98594.56;5032846;28;20032;-62
2022/11/17 01:25:14;;;;;;;10.32;5.57;;;;;;;9.34;100.00;98574.84;5029388;28;20033;-63
2022/11/17 01:27:39;;;;;;;8.27;5.63;;;;;;;9.32;100.00;98593.47;5029988;28;20136;-66
2022/11/17 01:30:05;;;;;;;10.65;5.65;;;;;;;9.39;100.00;98581.41;5031682;28;20033;-62
2022/11/17 01:32:31;;;;;;;10.57;5.15;;;;;;;9.31;100.00;98580.88;5030888;28;20111;-64
2022/11/17 01:34:56;;;;;;;9.75;5.07;;;;;;;9.33;100.00;98575.97;5032349;28;20057;-63
2022/11/17 01:37:21;;;;;;;9.70;5.13;;;;;;;9.38;100.00;98574.28;5030072;28;20033;-67
2022/11/17 01:39:48;;;;;;;9.57;4.80;;;;;;;9.43;100.00;98569.63;5029950;28;20075;-63
2022/11/17 01:42:20;;;;;;;7.55;4.38;;;;;;;9.41;100.00;98581.94;5028806;28;20038;-62
2022/11/17 01:44:56;;;;;;;8.60;5.10;;;;;;;9.42;100.00;98564.41;5028465;28;20056;-63
2022/11/17 01:47:21;;;;;;;8.25;4.13;;;;;;;9.45;100.00;98555.66;5030015;28;20028;-63
2022/11/17 01:49:50;;;;;;;7.20;3.63;;;;;;;9.46;100.00;98541.66;5030174;28;20104;-63
2022/11/17 01:52:16;;;;;;;5.70;3.60;;;;;;;9.48;100.00;98538.63;5029513;28;20137;-65
2022/11/17 01:54:44;;;;;;;5.72;2.90;;;;;;;9.49;100.00;98513.72;5026842;28;20665;-63
2022/11/17 01:57:17;;;;;;;7.15;3.10;;;;;;;9.52;100.00;98512.31;5028822;28;20116;-63
2022/11/17 01:59:47;;;;;;;6.88;3.50;;;;;;;9.57;100.00;98506.81;5028507;28;20396;-63
2022/11/17 02:02:13;;;;;;;7.70;3.03;;;;;;;9.62;100.00;98515.81;5028111;28;20494;-63
2022/11/17 02:04:48;;;;;;;4.63;2.50;;;;;;;9.64;100.00;98526.53;5026624;28;20029;-62
2022/11/17 02:07:26;;;;;;;5.28;3.10;;;;;;;9.64;100.00;98526.53;5020802;28;20346;-62
2022/11/17 02:09:53;;;;;;;4.60;2.70;;;;;;;9.76;100.00;98527.00;5025755;28;20049;-64
2022/11/17 02:12:20;;;;;;;5.25;2.95;;;;;;;9.81;100.00;98534.38;5028622;28;20091;-62
2022/11/17 02:14:48;;;;;;;5.07;2.85;;;;;;;9.82;100.00;98514.06;5027387;28;20077;-65
2022/11/17 02:17:13;;;;;;;5.47;3.08;;;;;;;9.83;100.00;98511.06;5028134;28;20087;-62
2022/11/17 02:19:41;;;;;;;5.95;3.08;;;;;;;10.00;100.00;98516.16;5026591;28;20099;-64
2022/11/17 02:22:13;;;;;;;5.68;3.55;;;;;;;9.97;100.00;98502.19;5027356;28;20112;-62
2022/11/17 02:25:03;;;;;;;5.15;2.88;;;;;;;10.00;100.00;98498.91;5025702;28;20375;-62
2022/11/17 02:27:49;;;;;;;3.88;2.67;;;;;;;9.98;100.00;98493.69;5028864;28;20041;-66
2022/11/17 02:30:20;;;;;;;5.05;2.83;;;;;;;9.97;100.00;98493.97;5009008;28;20034;-64
2022/11/17 02:33:37;;;;;;;5.65;2.45;;;;;;;10.01;100.00;98506.03;5026270;28;20033;-63
2022/11/17 02:36:08;;;;;;;5.00;2.80;;;;;;;9.97;100.00;98513.16;4997086;28;20057;-64
2022/11/17 02:38:48;;;;;;;5.10;3.45;;;;;;;9.96;100.00;98519.75;5026595;28;20024;-64
2022/11/17 02:41:23;;;;;;;3.95;2.70;;;;;;;9.97;100.00;98513.16;5026995;28;20112;-62
2022/11/17 02:44:12;;;;;;;4.57;2.40;;;;;;;10.03;100.00;98501.06;5027510;28;20435;-65
2022/11/17 02:46:52;;;;;;;4.65;2.30;;;;;;;10.06;100.00;98473.88;5028576;28;20388;-62
2022/11/17 02:49:22;;;;;;;5.10;2.70;;;;;;;10.02;100.00;98489.28;5026883;28;20053;-64
2022/11/17 02:51:51;;;;;;;5.18;2.40;;;;;;;10.07;100.00;98482.94;5027565;28;20021;-62
2022/11/17 02:54:17;;;;;;;5.22;2.50;;;;;;;10.09;100.00;98473.34;5027458;28;20096;-62
2022/11/17 02:56:43;;;;;;;5.30;2.50;;;;;;;10.07;100.00;98471.97;5027632;28;20080;-66
2022/11/17 02:59:11;;;;;;;3.05;2.20;;;;;;;10.10;100.00;98460.44;5027330;28;20053;-66
2022/11/17 03:02:35;;;;;;;3.25;2.45;;;;;;;10.14;100.00;98445.03;5026462;28;20040;-63
2022/11/17 03:05:09;;;;;;;5.20;2.42;;;;;;;10.14;100.00;98442.31;4985818;28;20521;-62
2022/11/17 03:08:00;;;;;;;4.32;2.20;;;;;;;10.06;100.00;98440.16;4985809;28;20805;-63
2022/11/17 03:10:52;;;;;;;3.17;2.47;;;;;;;10.02;100.00;98426.19;5012402;28;20040;-63
2022/11/17 03:13:30;;;;;;;6.35;2.97;;;;;;;10.02;100.00;98425.38;5011924;28;20099;-64
2022/11/17 03:16:15;;;;;;;4.15;2.90;;;;;;;10.10;100.00;98433.81;5026369;28;20045;-62
2022/11/17 03:18:45;;;;;;;4.95;3.15;;;;;;;9.97;100.00;98423.50;5023781;28;20033;-63
2022/11/17 03:21:25;;;;;;;6.43;3.03;;;;;;;10.03;100.00;98427.00;5028229;28;20065;-63
2022/11/17 03:24:00;;;;;;;4.32;2.58;;;;;;;9.91;100.00;98407.38;5027348;28;20150;-62
2022/11/17 03:26:32;;;;;;;3.50;2.58;;;;;;;9.92;100.00;98404.34;5024401;28;20037;-64
2022/11/17 03:29:00;;;;;;;4.30;2.22;;;;;;;9.85;100.00;98403.84;5026972;28;20037;-63
2022/11/17 03:31:27;;;;;;;4.53;2.47;;;;;;;9.77;100.00;98407.19;5024573;28;20036;-65
2022/11/17 03:33:53;;;;;;;3.40;2.00;;;;;;;9.72;100.00;98404.50;5027826;28;20044;-64
2022/11/17 03:36:31;;;;;;;3.50;2.10;;;;;;;9.73;100.00;98396.00;5027406;28;20029;-64
2022/11/17 03:39:03;;;;;;;3.38;1.88;;;;;;;9.82;100.00;98398.94;5027338;28;20388;-63
2022/11/17 03:41:34;;;;;;;4.82;1.80;;;;;;;9.80;100.00;98396.50;5025112;28;20018;-62
2022/11/17 03:44:03;;;;;;;4.57;2.10;;;;;;;9.78;100.00;98395.97;5025656;28;20676;-62
2022/11/17 03:46:30;;;;;;;3.63;1.80;;;;;;;9.73;100.00;98390.53;5019427;28;20045;-65
2022/11/17 03:49:08;;;;;;;3.28;1.90;;;;;;;9.68;100.00;98392.47;5021318;28;20056;-65
2022/11/17 03:51:33;;;;;;;2.35;1.60;;;;;;;9.67;100.00;98388.91;5020629;28;20033;-64
2022/11/17 03:53:59;;;;;;;3.00;1.63;;;;;;;9.69;100.00;98391.38;5013113;28;20025;-63
2022/11/17 03:56:49;;;;;;;2.75;1.70;;;;;;;9.65;100.00;98385.63;5009589;28;20384;-62
2022/11/17 03:59:23;;;;;;;2.28;1.60;;;;;;;9.64;100.00;98381.28;5018759;28;20040;-64
2022/11/17 04:01:49;;;;;;;4.55;1.65;;;;;;;9.65;100.00;98382.91;5027547;28;20056;-66
2022/11/17 04:04:16;;;;;;;4.55;2.42;;;;;;;9.67;100.00;98368.91;5024047;28;20112;-62
2022/11/17 04:06:42;;;;;;;5.47;1.83;;;;;;;9.66;100.00;98367.28;5019780;28;20493;-62
2022/11/17 04:09:07;;;;;;;3.03;1.70;;;;;;;9.74;100.00;98358.44;5022286;28;20124;-66
2022/11/17 04:17:01;;;;;;;2.60;1.85;;;;;;;9.96;100.00;98363.47;5018126;28;20511;-63
2022/11/17 04:19:27;;;;;;;3.40;2.40;;;;;;;10.00;100.00;98356.31;5015715;28;20112;-63
2022/11/17 04:21:52;;;;;;;4.03;2.75;;;;;;;9.98;100.00;98369.47;5023126;28;20037;-64
2022/11/17 04:24:17;;;;;;;3.63;2.85;;;;;;;9.99;100.00;98358.22;5022028;28;20053;-63
2022/11/17 04:29:27;;;;;;;3.45;2.50;;;;;;;10.03;100.00;98355.72;5015874;28;21047;-63
2022/11/17 04:31:52;;;;;;;3.95;2.38;;;;;;;10.07;100.00;98356.78;5016427;28;20033;-63
2022/11/17 04:34:17;;;;;;;3.33;2.40;;;;;;;10.09;100.00;98355.41;5016974;28;20045;-67
2022/11/17 04:36:43;;;;;;;3.47;2.05;;;;;;;10.08;100.00;98353.75;5021003;28;20048;-63
2022/11/17 04:39:09;;;;;;;4.32;2.10;;;;;;;10.08;100.00;98348.25;5018312;28;20038;-63
2022/11/17 04:41:53;;;;;;;2.88;1.90;;;;;;;10.09;100.00;98346.34;5028103;28;20026;-62
2022/11/17 04:44:24;;;;;;;3.63;1.90;;;;;;;9.92;100.00;98349.50;5020982;28;20025;-65
2022/11/17 04:46:49;;;;;;;3.30;1.92;;;;;;;9.84;100.00;98352.88;5027402;28;20029;-65
2022/11/17 04:49:17;;;;;;;3.55;2.03;;;;;;;9.69;100.00;98340.13;5023336;28;20028;-63
2022/11/17 04:51:43;;;;;;;4.20;1.77;;;;;;;9.63;100.00;98341.28;5027184;28;20044;-62
2022/11/17 04:54:10;;;;;;;5.22;2.13;;;;;;;9.57;100.00;98324.03;5024250;28;20357;-67
2022/11/17 04:56:36;;;;;;;5.50;2.25;;;;;;;9.55;100.00;98307.06;5026316;28;20072;-62
2022/11/17 04:59:02;;;;;;;4.22;2.30;;;;;;;9.50;100.00;98320.00;5024124;28;20065;-64
2022/11/17 05:01:28;;;;;;;4.05;2.28;;;;;;;9.51;100.00;98316.94;5026121;28;20072;-62
2022/11/17 05:03:58;;;;;;;4.78;2.10;;;;;;;9.48;100.00;98312.06;5024225;28;20401;-63
2022/11/17 05:06:43;;;;;;;4.43;2.20;;;;;;;9.49;100.00;98313.69;5026710;28;20040;-63
2022/11/17 05:09:11;;;;;;;3.50;2.15;;;;;;;9.44;100.00;98316.47;5025613;28;20044;-65
2022/11/17 05:14:22;;;;;;;5.78;2.42;;;;;;;9.42;100.00;98306.88;5019277;28;20052;-65
2022/11/17 05:17:09;;;;;;;4.25;2.28;;;;;;;9.43;100.00;98308.50;5022983;28;20028;-63
2022/11/17 05:19:36;;;;;;;7.10;1.95;;;;;;;9.41;100.00;98322.50;5026574;28;20032;-64
2022/11/17 05:22:01;;;;;;;7.43;2.10;;;;;;;9.51;100.00;98314.22;5029659;28;20453;-63
2022/11/17 05:24:26;;;;;;;7.72;2.33;;;;;;;9.45;100.00;98312.63;5025646;28;20036;-64
2022/11/17 05:26:52;;;;;;;7.13;2.47;;;;;;;9.43;100.00;98320.31;5029711;28;20029;-65
2022/11/17 05:29:20;;;;;;;6.32;2.58;;;;;;;9.48;100.00;98325.75;5029966;28;20033;-63
2022/11/17 05:31:46;;;;;;;6.72;2.35;;;;;;;9.49;100.00;98326.56;5028215;28;20132;-64
2022/11/17 05:34:13;;;;;;;8.15;2.45;;;;;;;9.57;100.00;98350.59;5028500;28;20203;-63
2022/11/17 05:36:39;;;;;;;5.75;2.15;;;;;;;9.54;100.00;98368.47;5028994;28;20071;-64
2022/11/17 05:39:05;;;;;;;6.07;2.15;;;;;;;9.64;100.00;98351.13;5026751;28;20416;-63
2022/11/17 05:41:31;;;;;;;7.20;2.22;;;;;;;9.62;100.00;98348.66;5027571;28;20033;-62
2022/11/17 05:43:57;;;;;;;5.45;2.28;;;;;;;9.66;100.00;98340.69;5029691;28;20400;-63
2022/11/17 05:46:23;;;;;;;7.10;2.38;;;;;;;9.66;100.00;98362.59;5029270;28;20124;-64
2022/11/17 05:48:50;;;;;;;8.23;2.28;;;;;;;9.68;100.00;98349.44;5029526;28;20125;-62
2022/11/17 05:51:17;;;;;;;6.55;2.58;;;;;;;9.64;100.00;98359.34;5028237;28;20029;-64
2022/11/17 05:53:42;;;;;;;10.15;2.53;;;;;;;9.64;100.00;98359.34;5028734;28;20064;-61
2022/11/17 05:56:27;;;;;;;8.98;2.72;;;;;;;9.62;100.00;98358.78;5027286;28;20029;-63
2022/11/17 05:59:10;;;;;;;9.65;2.30;;;;;;;9.65;100.00;98366.47;5029562;28;20029;-63
2022/11/17 06:01:40;;;;;;;9.40;2.72;;;;;;;9.62;100.00;98364.28;5027976;28;20033;-63
2022/11/17 06:04:07;;;;;;;7.65;2.15;;;;;;;9.60;100.00;98369.22;5028150;28;20453;-63
2022/11/17 06:06:33;;;;;;;10.27;2.30;;;;;;;9.60;100.00;98367.31;5027723;28;20472;-62
2022/11/17 06:08:59;;;;;;;9.65;2.30;;;;;;;9.62;100.00;98367.84;5026794;28;20084;-61
2022/11/17 06:11:24;;;;;;;11.95;2.80;;;;;;;9.65;100.00;98368.38;5028054;28;20049;-65
2022/11/17 06:13:49;;;;;;;8.55;2.30;;;;;;;9.75;100.00;98368.31;5027128;28;20036;-62
2022/11/17 06:16:20;;;;;;;9.38;2.38;;;;;;;9.68;100.00;98371.38;5028243;28;20046;-63
2022/11/17 06:18:52;;;;;;;8.68;2.47;;;;;;;9.71;100.00;98376.28;5029636;28;20587;-62
2022/11/17 06:21:17;;;;;;;9.32;2.80;;;;;;;9.69;100.00;98375.75;5029555;28;20041;-62
2022/11/17 06:23:45;;;;;;;10.18;2.50;;;;;;;9.69;100.00;98375.75;5027634;28;20383;-65
2022/11/17 06:26:12;;;;;;;11.85;2.75;;;;;;;9.74;100.00;98381.19;5027632;28;20040;-64
2022/11/17 06:28:40;;;;;;;9.52;2.28;;;;;;;9.77;100.00;98385.28;5026019;28;20037;-63
2022/11/17 06:31:06;;;;;;;9.20;2.13;;;;;;;9.91;100.00;98385.44;5026029;28;20025;-62
2022/11/17 06:33:34;;;;;;;9.77;2.65;;;;;;;9.85;100.00;98395.63;5028409;28;20061;-62
2022/11/17 06:36:01;;;;;;;10.35;2.50;;;;;;;9.82;100.00;98391.53;5027535;28;20529;-62
2022/11/17 06:38:28;;;;;;;7.57;3.03;;;;;;;9.77;100.00;98388.00;5026210;28;20487;-63
2022/11/17 06:40:53;;;;;;;11.18;2.65;;;;;;;9.86;100.00;98410.97;5027628;28;20022;-65
2022/11/17 06:43:18;;;;;;;9.85;2.15;;;;;;;9.80;100.00;98412.94;5028113;28;20140;-63
2022/11/17 06:45:45;;;;;;;8.63;1.73;;;;;;;9.87;100.00;98424.38;5020079;28;20743;-62
2022/11/17 06:48:13;;;;;;;10.23;2.42;;;;;;;9.85;100.00;98412.09;5020898;28;20112;-65
2022/11/17 06:50:39;;;;;;;10.05;2.33;;;;;;;9.80;100.00;98412.94;5029431;28;20041;-62
2022/11/17 06:53:07;;;;;;;11.50;2.17;;;;;;;9.76;100.00;98414.59;5032044;28;20036;-63
2022/11/17 06:55:33;;;;;;;9.65;2.22;;;;;;;9.72;100.00;98419.00;5023889;28;20083;-62
2022/11/17 06:58:00;;;;;;;10.80;2.10;;;;;;;9.68;100.00;98419.88;5023470;28;20029;-62
2022/11/17 07:00:26;;;;;;;6.70;1.63;;;;;;;9.70;100.00;98418.50;5025829;28;20021;-62
2022/11/17 07:02:52;;;;;;;9.82;1.83;;;;;;;9.68;100.00;98419.88;5024434;28;20060;-66
2022/11/17 07:05:17;;;;;;;10.07;1.90;;;;;;;9.67;100.00;98424.53;5024995;28;20040;-63
2022/11/17 07:07:42;;;;;;;6.35;1.88;;;;;;;9.71;100.00;98435.75;5021965;28;20036;-63
2022/11/17 07:10:08;;;;;;;7.60;2.45;;;;;;;9.65;100.00;98440.44;5022921;28;20534;-62
2022/11/17 07:12:33;;;;;;;6.70;1.90;;;;;;;9.66;100.00;98435.78;5024237;28;20041;-62
2022/11/17 07:14:59;;;;;;;6.50;2.22;;;;;;;9.72;100.00;98440.13;5025557;28;20522;-63
2022/11/17 07:17:24;;;;;;;8.43;2.03;;;;;;;9.69;100.00;98440.72;5024109;28;20036;-62
2022/11/17 07:19:49;;;;;;;7.70;2.37;;;;;;;9.60;100.00;98444.03;5026214;28;20021;-62
2022/11/17 07:22:14;;;;;;;6.85;2.00;;;;;;;9.69;100.00;98437.97;5024792;28;20623;-65
2022/11/17 07:24:40;;;;;;;8.70;2.35;;;;;;;9.59;100.00;98441.59;5022624;28;20034;-62
2022/11/17 07:27:05;;;;;;;8.23;2.13;;;;;;;9.56;100.00;98450.38;5024260;28;20041;-62
2022/11/17 07:29:30;;;;;;;8.95;1.92;;;;;;;9.58;100.00;98453.66;5025531;28;20061;-63
2022/11/17 07:31:56;;;;;;;7.38;1.98;;;;;;;9.57;100.00;98450.06;5025693;28;20026;-63
2022/11/17 07:34:21;;;;;;;5.93;1.83;;;;;;;9.55;100.00;98444.06;5025910;28;20534;-66
2022/11/17 07:36:47;;;;;;;6.28;1.67;;;;;;;9.53;100.00;98456.41;5023758;28;20028;-63
2022/11/17 07:39:14;;;;;;;6.03;1.70;;;;;;;9.53;100.00;98456.41;5022571;28;20368;-62
2022/11/17 07:41:40;;;;;;;8.02;2.45;;;;;;;9.52;100.00;98468.47;5025604;28;20032;-63
2022/11/17 07:44:05;;;;;;;7.45;2.63;;;;;;;9.50;100.00;98467.94;5025743;28;20025;-62
2022/11/17 07:46:30;;;;;;;6.68;1.98;;;;;;;9.51;100.00;98466.84;5025821;28;20439;-65
2022/11/17 07:48:55;;;;;;;7.10;1.90;;;;;;;9.49;100.00;98469.88;5024558;28;20026;-62
2022/11/17 07:51:21;;;;;;;6.47;1.77;;;;;;;9.47;100.00;98473.97;5025960;28;20021;-66
2022/11/17 07:53:46;;;;;;;5.93;1.67;;;;;;;9.45;100.00;98465.22;5022897;28;20071;-63
2022/11/17 07:56:12;;;;;;;6.90;1.95;;;;;;;9.43;100.00;98481.09;5022217;28;20516;-62
2022/11/17 07:58:38;;;;;;;5.97;2.33;;;;;;;9.42;100.00;98480.28;5024113;28;20108;-62
2022/11/17 08:01:05;;;;;;;4.13;1.80;;;;;;;9.43;100.00;98470.16;5024453;28;20103;-63
2022/11/17 08:03:30;;;;;;;5.20;2.15;;;;;;;9.42;100.00;98482.22;5025078;28;20852;-66
2022/11/17 08:05:56;;;;;;;6.53;1.90;;;;;;;9.43;100.00;98489.31;5023674;28;20082;-64
2022/11/17 08:08:22;;;;;;;7.07;1.77;;;;;;;9.43;100.00;98492.91;5015983;28;20041;-67
2022/11/17 08:10:47;;;;;;;7.07;2.00;;;;;;;9.43;100.00;98494.81;5003715;28;20036;-64
2022/11/17 08:13:14;;;;;;;6.85;1.60;;;;;;;9.40;100.00;98496.22;5011856;28;20029;-64
2022/11/17 08:15:39;;;;;;;5.97;1.70;;;;;;;9.48;100.00;98497.53;5008278;28;20045;-66
2022/11/17 08:18:05;;;;;;;7.22;2.20;;;;;;;9.52;100.00;98504.91;5026545;28;20368;-64
2022/11/17 08:20:30;;;;;;;7.88;2.28;;;;;;;9.51;100.00;98507.94;5003832;28;20111;-65
2022/11/17 08:22:55;;;;;;;4.97;1.92;;;;;;;9.50;100.00;98511.78;5011108;28;20025;-64
2022/11/17 08:25:23;;;;;;;4.45;1.83;;;;;;;9.49;100.00;98541.09;5010510;28;20040;-67
2022/11/17 08:27:50;;;;;;;4.53;1.67;;;;;;;9.50;100.00;98518.09;5005235;28;20408;-64
2022/11/17 08:30:18;;;;;;;5.82;1.92;;;;;;;9.56;100.00;98518.88;5005144;28;20087;-65
2022/11/17 08:32:51;;;;;;;6.28;2.05;;;;;;;9.52;100.00;98512.31;5001077;28;20037;-63
2022/11/17 08:35:20;;;;;;;5.50;1.83;;;;;;;9.46;100.00;98527.13;5007119;28;20040;-63
2022/11/17 08:37:45;;;;;;;5.93;1.70;;;;;;;9.41;100.00;98521.69;5008890;28;20041;-64
2022/11/17 08:40:12;;;;;;;6.03;2.15;;;;;;;9.36;100.00;98530.72;5018217;28;20025;-65
2022/11/17 08:42:37;;;;;;;7.60;1.92;;;;;;;9.32;100.00;98529.66;5011596;28;20014;-65
2022/11/17 08:45:04;;;;;;;5.03;1.80;;;;;;;9.34;100.00;98541.97;5006154;28;20095;-63
2022/11/17 08:47:30;;;;;;;6.75;2.40;;;;;;;9.32;100.00;98538.69;5007908;28;20735;-64
2022/11/17 08:49:55;;;;;;;8.75;1.88;;;;;;;9.34;100.00;98536.50;5007794;28;20081;-64
2022/11/17 08:52:21;;;;;;;5.00;1.73;;;;;;;9.35;100.00;98543.63;5011108;28;20049;-66
2022/11/17 08:54:46;;;;;;;7.03;2.13;;;;;;;9.32;100.00;98535.13;5021434;28;20034;-65
2022/11/17 08:57:12;;;;;;;4.65;1.50;;;;;;;9.30;100.00;98542.81;5002866;28;20026;-63
2022/11/17 08:59:37;;;;;;;3.83;1.90;;;;;;;9.29;100.00;98544.72;5006138;28;20463;-63
2022/11/17 09:02:02;;;;;;;4.88;2.40;;;;;;;9.34;100.00;98547.47;5009723;28;20069;-66
2022/11/17 09:04:27;;;;;;;5.75;1.42;;;;;;;9.30;100.00;98538.16;5009721;28;20033;-64
2022/11/17 09:06:53;;;;;;;6.17;1.80;;;;;;;9.29;100.00;98544.72;5015495;28;20454;-63
2022/11/17 09:09:18;;;;;;;3.95;1.50;;;;;;;9.24;100.00;98542.00;5026157;28;20326;-64
2022/11/17 09:11:43;;;;;;;6.88;1.63;;;;;;;9.25;100.00;98548.31;5008078;28;20040;-66
2022/11/17 09:14:08;;;;;;;4.97;1.90;;;;;;;9.25;100.00;98556.53;5012879;28;20466;-67
2022/11/17 09:16:35;;;;;;;4.70;1.60;;;;;;;9.29;100.00;98560.34;5009139;28;20036;-65
2022/11/17 09:19:01;;;;;;;6.20;1.92;;;;;;;9.28;100.00;98565.00;5015252;28;20029;-66
2022/11/17 09:21:27;;;;;;;6.90;1.80;;;;;;;9.33;100.00;98565.00;5011602;28;20080;-64
2022/11/17 09:23:53;;;;;;;4.80;1.75;;;;;;;9.31;100.00;98569.91;5009741;28;20113;-65
2022/11/17 09:26:19;;;;;;;4.78;2.10;;;;;;;9.29;100.00;98572.13;5004704;28;20038;-64
2022/11/17 09:28:44;;;;;;;7.35;2.00;;;;;;;9.33;100.00;98584.19;5010157;28;20037;-66
2022/11/17 09:31:16;;;;;;;7.20;2.30;;;;;;;9.40;100.00;98580.31;5004265;28;20080;-64
2022/11/17 09:33:42;;;;;;;7.95;1.98;;;;;;;9.39;100.00;98582.25;5012189;28;20056;-65
2022/11/17 09:36:08;;;;;;;6.93;2.22;;;;;;;9.34;100.00;98580.34;5003859;28;20026;-65
2022/11/17 09:38:37;;;;;;;5.75;1.63;;;;;;;9.38;100.00;98580.59;5008654;28;20385;-64
2022/11/17 09:41:15;;;;;;;6.03;2.10;;;;;;;9.50;100.00;98593.97;5012204;28;20519;-64
2022/11/17 09:44:11;;;;;;;9.05;3.20;;;;;;;9.46;100.00;98595.63;5012347;28;20391;-65
2022/11/17 09:47:05;;;;;;;8.65;3.85;;;;;;;9.55;100.00;98600.25;5008239;28;20039;-66
2022/11/17 09:49:40;;;;;;;5.53;2.78;;;;;;;9.57;100.00;98592.56;5010640;28;20547;-66
2022/11/17 09:52:14;;;;;;;7.72;2.47;;;;;;;9.62;100.00;98603.53;5007836;28;20064;-64
2022/11/17 09:54:49;;;;;;;4.82;2.50;;;;;;;9.68;100.00;98596.13;5011748;28;20040;-66
2022/11/17 09:57:29;;;;;;;5.10;2.00;;;;;;;9.76;100.00;98606.50;5011009;28;20384;-65
2022/11/17 10:00:03;;;;;;;6.55;2.00;;;;;;;9.90;100.00;98597.66;5023558;28;20036;-65
2022/11/17 10:02:29;;;;;;;5.95;1.73;;;;;;;9.93;100.00;98606.13;5005751;28;20033;-64
2022/11/17 10:04:54;;;;;;;6.60;2.42;;;;;;;9.94;100.00;98610.53;5030014;28;20067;-64
2022/11/17 10:07:21;;;;;;;4.85;1.75;;;;;;;9.98;100.00;98613.50;5016512;28;20116;-66
2022/11/17 10:09:50;;;;;;;5.70;1.92;;;;;;;10.00;100.00;98631.34;5006966;28;20030;-64
2022/11/17 10:12:23;;;;;;;6.93;1.88;;;;;;;10.07;100.00;98611.84;5022669;28;20037;-64
2022/11/17 10:14:49;;;;;;;5.13;1.90;;;;;;;10.06;100.00;98618.44;5014620;28;20048;-66
2022/11/17 10:17:14;;;;;;;9.02;1.73;;;;;;;10.10;100.00;98619.50;5010708;28;21355;-64
2022/11/17 10:19:41;;;;;;;6.15;1.92;;;;;;;10.20;100.00;98626.88;5004836;28;20030;-65
2022/11/17 10:22:06;;;;;;;8.25;1.73;;;;;;;10.24;100.00;98623.31;5010000;28;20034;-63
2022/11/17 10:24:41;;;;;;;5.37;1.50;;;;;;;10.33;100.00;98635.31;5008459;28;20040;-63
2022/11/17 10:27:18;;;;;;;3.83;1.67;;;;;;;10.38;100.00;98626.22;5006926;28;20307;-64
2022/11/17 10:30:21;;;;;;;5.85;1.63;;;;;;;10.52;100.00;98640.13;4998543;28;20428;-65
2022/11/17 10:32:49;;;;;;;8.02;2.03;;;;;;;10.53;100.00;98641.78;4933359;28;20039;-65
2022/11/17 10:35:22;;;;;;;6.68;1.70;;;;;;;10.60;99.43;98636.81;4994275;28;20052;-65
2022/11/17 10:37:57;;;;;;;4.63;1.73;;;;;;;10.66;98.18;98643.91;5010842;28;20033;-63
2022/11/17 10:40:25;;;;;;;4.00;1.75;;;;;;;10.68;96.46;98636.19;5019225;28;20040;-67
2022/11/17 10:42:56;;;;;;;;;;;;;;;10.84;97.55;98650.63;5003536;28;20025;-69
2022/11/17 10:45:22;;;;;;;5.53;1.70;;;;;;;10.78;96.45;98643.53;5004989;28;19924;-69
2022/11/17 10:47:47;;;;;;;4.93;1.73;;;;;;;10.79;96.60;98648.72;5010031;28;20029;-69
2022/11/17 10:50:26;;;;;;;5.00;1.63;;;;;;;10.85;97.63;98658.59;5006188;28;20366;-69
2022/11/17 10:52:54;;;;;;;3.70;1.40;;;;;;;10.82;96.02;98659.16;5008112;28;20061;-69
2022/11/17 10:55:24;;;;;;;4.82;1.48;;;;;;;10.80;97.05;98666.88;5008870;28;20064;-69
2022/11/17 10:57:54;;;;;;;5.97;1.40;;;;;;;10.80;96.69;98666.88;5002508;28;20148;-69
2022/11/17 11:00:32;;;;;;;4.63;1.20;;;;;;;10.79;96.27;98669.88;5003564;28;20025;-69
2022/11/17 11:03:16;;;;;;;5.38;1.30;;;;;;;10.77;96.96;98667.41;5009933;28;20041;-69
2022/11/17 11:05:58;;;;;;;3.13;1.45;;;;;;;10.80;96.49;98650.38;5004555;28;20044;-69
2022/11/17 11:08:28;;;;;;;4.60;1.45;;;;;;;10.61;96.11;98668.63;5007323;28;20021;-69
2022/11/17 11:10:56;;;;;;;4.80;1.65;;;;;;;10.56;96.64;98671.41;5011645;28;20032;-69
2022/11/17 11:13:39;;;;;;;5.85;1.73;;;;;;;10.57;98.08;98678.53;5010268;28;20044;-69
2022/11/17 11:16:05;;;;;;;6.90;1.80;;;;;;;10.54;98.05;98673.59;5025547;28;20456;-69
2022/11/17 11:18:30;;;;;;;3.70;1.40;;;;;;;10.52;98.25;98682.13;5026886;28;20057;-69
2022/11/17 11:21:20;;;;;;;5.53;1.50;;;;;;;10.57;97.91;98687.59;5026403;28;20061;-69
2022/11/17 11:23:54;;;;;;;5.25;1.30;;;;;;;10.54;97.76;98682.69;5026271;28;20037;-69
2022/11/17 11:26:34;;;;;;;3.80;1.42;;;;;;;10.56;98.35;98687.88;5027084;28;20642;-69
2022/11/17 11:29:03;;;;;;;7.72;1.90;;;;;;;10.59;99.67;98681.81;5026522;28;20381;-69
2022/11/17 11:31:40;;;;;;;7.75;1.73;;;;;;;10.55;99.03;98686.25;5023354;28;20033;-68
2022/11/17 11:34:15;;;;;;;7.40;1.85;;;;;;;10.59;98.28;98684.56;5024803;28;20048;-69
2022/11/17 11:36:52;;;;;;;4.80;1.48;;;;;;;10.55;98.47;98689.00;5024880;28;20484;-68
2022/11/17 11:39:48;;;;;;;5.47;2.00;;;;;;;10.55;98.21;98689.81;5018338;28;20037;-69
2022/11/17 11:42:38;;;;;;;5.20;1.67;;;;;;;10.65;96.62;98703.47;5021842;28;20037;-69
2022/11/17 11:45:35;;;;;;;5.57;1.98;;;;;;;10.53;96.46;98688.44;5027487;28;20036;-69
2022/11/17 11:48:06;;;;;;;3.47;1.42;;;;;;;10.53;96.63;98713.13;4995870;28;20045;-69
2022/11/17 11:50:52;;;;;;;6.18;1.88;;;;;;;10.65;96.51;98716.38;5003440;28;20038;-69
2022/11/17 11:53:26;;;;;;;5.50;1.80;;;;;;;10.55;97.58;98719.19;5008611;28;20392;-69
2022/11/17 11:56:10;;;;;;;5.13;1.85;;;;;;;10.60;97.05;98727.41;5005540;28;20416;-69
2022/11/17 11:58:42;;;;;;;3.10;1.60;;;;;;;10.54;96.84;98720.25;5012906;28;20037;-69
2022/11/17 12:01:10;;;;;;;5.38;1.60;;;;;;;10.56;96.69;98716.16;5010523;28;20413;-69
2022/11/17 12:03:47;;;;;;;5.55;1.88;;;;;;;10.54;97.17;98717.50;5015350;28;20036;-69